Flight Track Log - Related Links

Times and Time Zones

All times are in EDT time to prevent confusion due to time zone crossing. See the ASQ4976 flight status page for this flight to view local times or setup timezone preferences in your user account.

Time Position Orientation Groundspeed Altitude Reporting Facility
EDT Latitude Longitude Course Direction KTS MPH feet Rate Location/Type
Tue 12:45:45 PM 42.7067 -73.8189 199° South 165 190 2,300  Level Boston Center
Tue 12:46:26 PM 42.7167 -73.8672 286° West 217 250 3,800 2,436 Climbing Boston Center
Tue 12:47:26 PM 42.7722 -73.9053 333° Northwest 240 276 6,400 2,650 Climbing Boston Center
Tue 12:48:26 PM 42.8300 -73.9519 329° Northwest 240 276 9,100 2,450 Climbing Boston Center
Tue 12:49:26 PM 42.8603 -74.0347 297° West 240 276 11,300 2,350 Climbing Boston Center
Tue 12:50:26 PM 42.8236 -74.1158 238° Southwest 214 246 13,800 2,250 Climbing Boston Center
Tue 12:51:26 PM 42.7539 -74.1819 215° Southwest 248 285 15,800 2,000 Climbing Boston Center
Tue 12:52:26 PM 42.6647 -74.1483 165° South 261 300 17,800 1,600 Climbing Boston Center
Tue 12:53:26 PM 42.5733 -74.1261 170° South 316 364 19,000 1,100 Climbing Boston Center
Tue 12:54:26 PM 42.4717 -74.1008 170° South 342 394 20,000 1,100 Climbing Boston Center
Tue 12:55:26 PM 42.3594 -74.0725 169° South 387 445 21,200 1,350 Climbing Boston Center
Tue 12:56:26 PM 42.2433 -74.0414 169° South 414 476 22,700 1,500 Climbing Boston Center
Tue 12:57:26 PM 42.1328 -74.0442 181° South 436 502 24,200 1,500 Climbing Boston Center
Tue 12:58:26 PM 42.0139 -74.0494 182° South 436 502 25,700 1,500 Climbing Boston Center
Tue 12:59:26 PM 41.8928 -74.0550 182° South 441 507 27,200 1,450 Climbing Boston Center
Tue 01:00:26 PM 41.7783 -74.0575 181° South 435 501 28,600 1,183 Climbing Boston Center
Tue 01:02:54 PM 41.4792 -74.1022 186° South 451 519 31,300 1,096 Climbing New York Center
Tue 01:03:54 PM 41.3928 -74.2086 223° Southwest 414 476 32,400 1,282 Climbing New York Center
Tue 01:04:51 PM 41.2894 -74.3247 220° Southwest 437 503 33,800 814 Climbing New York Center
Tue 01:05:52 PM 41.2006 -74.4303 222° Southwest 437 503 34,000 99 Climbing New York Center
Tue 01:06:52 PM 41.1142 -74.5331 222° Southwest 437 503 34,000  Level New York Center
Tue 01:07:51 PM 41.0253 -74.6381 222° Southwest 426 490 34,000  Level New York Center
Tue 01:08:52 PM 40.9367 -74.7403 221° Southwest 426 490 34,000  Level New York Center
Tue 01:09:53 PM 40.8519 -74.8394 222° Southwest 426 490 34,000  Level New York Center
Tue 01:10:53 PM 40.7650 -74.9411 222° Southwest 421 484 34,000  Level New York Center
Tue 01:11:54 PM 40.6739 -75.0450 221° Southwest 427 491 34,000  Level New York Center
Tue 01:12:54 PM 40.5822 -75.1542 222° Southwest 433 498 34,000  Level New York Center
Tue 01:13:52 PM 40.4908 -75.2575 221° Southwest 433 498 34,000  Level New York Center
Tue 01:14:54 PM 40.3972 -75.3631 221° Southwest 438 504 34,000  Level New York Center
Tue 01:15:54 PM 40.3033 -75.4711 221° Southwest 438 504 34,000  Level New York Center
Tue 01:16:52 PM 40.2178 -75.5794 224° Southwest 438 504 34,000  Level New York Center
Tue 01:17:52 PM 40.1519 -75.7081 236° Southwest 438 504 34,000  Level New York Center
Tue 01:18:52 PM 40.0836 -75.8417 236° Southwest 438 504 34,000  Level New York Center
Tue 01:19:53 PM 40.0197 -75.9725 238° Southwest 443 510 34,000  Level New York Center
Tue 01:21:49 PM 39.8892 -76.2214 236° Southwest 445 512 34,000  Level Washington Center
Tue 01:22:50 PM 39.8217 -76.3533 236° Southwest 445 512 34,000  Level Washington Center
Tue 01:23:50 PM 39.7542 -76.4847 236° Southwest 438 504 34,000  Level Washington Center
Tue 01:24:49 PM 39.6844 -76.6081 234° Southwest 438 504 34,000  Level Washington Center
Tue 01:25:50 PM 39.6164 -76.7392 236° Southwest 438 504 34,000  Level Washington Center
Tue 01:26:50 PM 39.5506 -76.8700 237° Southwest 438 504 34,000  Level Washington Center
Tue 01:27:50 PM 39.4783 -76.9922 233° Southwest 438 504 34,000  Level Washington Center
Tue 01:28:51 PM 39.3833 -77.0925 219° Southwest 438 504 34,000  Level Washington Center
Tue 01:29:51 PM 39.3094 -77.1742 221° Southwest 438 504 34,000  Level Washington Center
Tue 01:30:49 PM 39.2058 -77.2817 219° Southwest 443 510 34,000  Level Washington Center
Tue 01:31:50 PM 39.1106 -77.3811 219° Southwest 443 510 34,000  Level Washington Center
Tue 01:32:50 PM 39.0133 -77.4803 218° Southwest 443 510 34,000  Level Washington Center
Tue 01:33:51 PM 38.9092 -77.5925 220° Southwest 448 516 34,000  Level Washington Center
Tue 01:34:51 PM 38.8308 -77.6703 218° Southwest 448 516 34,000  Level Washington Center
Tue 01:35:49 PM 38.7203 -77.7842 219° Southwest 459 528 34,000  Level Washington Center
Tue 01:36:50 PM 38.6222 -77.8983 222° Southwest 449 517 34,000  Level Washington Center
Tue 01:37:49 PM 38.5533 -78.0208 234° Southwest 437 503 34,000  Level Washington Center
Tue 01:38:50 PM 38.4756 -78.1483 232° Southwest 442 509 34,000  Level Washington Center
Tue 01:39:51 PM 38.4039 -78.2731 234° Southwest 442 509 34,000  Level Washington Center
Tue 01:40:49 PM 38.3303 -78.3972 233° Southwest 447 514 34,000  Level Washington Center
Tue 01:41:50 PM 38.2564 -78.5217 233° Southwest 447 514 34,000  Level Washington Center
Tue 01:42:51 PM 38.1933 -78.6300 233° Southwest 447 514 34,000  Level Washington Center
Tue 01:43:51 PM 38.1125 -78.7667 233° Southwest 447 514 34,000  Level Washington Center
Tue 01:44:49 PM 38.0361 -78.8900 232° Southwest 447 514 34,000  Level Washington Center
Tue 01:45:49 PM 37.9639 -79.0106 233° Southwest 447 514 34,000  Level Washington Center
Tue 01:46:50 PM 37.8875 -79.1333 232° Southwest 442 509 34,000  Level Washington Center
Tue 01:47:50 PM 37.8114 -79.2350 227° Southwest 447 514 34,000  Level Washington Center
Tue 01:48:51 PM 37.7286 -79.3517 228° Southwest 452 520 34,000  Level Washington Center
Tue 01:49:49 PM 37.6433 -79.4683 227° Southwest 452 520 34,000  Level Washington Center
Tue 01:50:49 PM 37.5494 -79.5969 227° Southwest 457 526 34,000  Level Washington Center
Tue 01:51:49 PM 37.4642 -79.7128 227° Southwest 452 520 34,000  Level Washington Center
Tue 01:52:50 PM 37.3875 -79.8186 228° Southwest 465 535 34,000  Level Washington Center
Tue 01:53:51 PM 37.3019 -79.9339 227° Southwest 460 529 34,000  Level Washington Center
Tue 01:54:49 PM 37.2164 -80.0492 227° Southwest 455 524 34,000  Level Washington Center
Tue 01:57:19 PM 37.0033 -80.3325 227° Southwest 456 525 34,000  Level Atlanta Center
Tue 01:58:19 PM 36.9169 -80.4456 226° Southwest 456 525 34,000  Level Atlanta Center
Tue 01:59:19 PM 36.8225 -80.5717 227° Southwest 456 525 34,000  Level Atlanta Center
Tue 02:00:19 PM 36.7403 -80.6842 228° Southwest 456 525 34,000  Level Atlanta Center
Tue 02:01:19 PM 36.6536 -80.7964 226° Southwest 444 511 34,000  Level Atlanta Center
Tue 02:02:19 PM 36.5669 -80.9139 227° Southwest 459 528 34,000  Level Atlanta Center
Tue 02:03:19 PM 36.4903 -81.0175 227° Southwest 459 528 34,000  Level Atlanta Center
Tue 02:04:19 PM 36.4014 -81.1317 226° Southwest 459 528 34,000  Level Atlanta Center
Tue 02:05:19 PM 36.3164 -81.2456 227° Southwest 459 528 34,000  Level Atlanta Center
Tue 02:06:19 PM 36.2292 -81.3619 227° Southwest 459 528 34,000  Level Atlanta Center
Tue 02:07:19 PM 36.1442 -81.4753 227° Southwest 459 528 34,000  Level Atlanta Center
Tue 02:08:19 PM 36.0567 -81.5883 226° Southwest 460 529 34,000  Level Atlanta Center
Tue 02:09:19 PM 35.9692 -81.6964 225° Southwest 460 529 34,000  Level Atlanta Center
Tue 02:10:19 PM 35.8836 -81.8114 227° Southwest 460 529 34,000  Level Atlanta Center
Tue 02:11:19 PM 35.7981 -81.9189 226° Southwest 455 524 34,000  Level Atlanta Center
Tue 02:12:19 PM 35.7122 -82.0311 227° Southwest 455 524 34,000  Level Atlanta Center
Tue 02:13:19 PM 35.6161 -82.1508 225° Southwest 455 524 34,000  Level Atlanta Center
Tue 02:14:19 PM 35.5300 -82.2600 226° Southwest 455 524 34,000  Level Atlanta Center
Tue 02:15:19 PM 35.4375 -82.3589 221° Southwest 455 524 34,000 -100 Level Atlanta Center
Tue 02:16:19 PM 35.3472 -82.4653 224° Southwest 450 518 33,800 -800 Descending Atlanta Center
Tue 02:17:19 PM 35.2547 -82.5686 222° Southwest 450 518 32,400 -1,450 Descending Atlanta Center
Tue 02:18:19 PM 35.1578 -82.6694 220° Southwest 456 525 30,900 -1,500 Descending Atlanta Center
Tue 02:19:19 PM 35.0589 -82.7828 223° Southwest 468 539 29,400 -1,450 Descending Atlanta Center
Tue 02:20:19 PM 34.9639 -82.8856 222° Southwest 474 545 28,000 -1,400 Descending Atlanta Center
Tue 02:21:19 PM 34.8769 -82.9806 222° Southwest 474 545 26,600 -1,450 Descending Atlanta Center
Tue 02:22:19 PM 34.7819 -83.0803 221° Southwest 457 526 25,100 -1,550 Descending Atlanta Center
Tue 02:23:19 PM 34.7011 -83.1822 226° Southwest 443 510 23,500 -1,350 Descending Atlanta Center
Tue 02:24:19 PM 34.6100 -83.2742 220° Southwest 438 504 22,400 -1,050 Descending Atlanta Center
Tue 02:25:19 PM 34.5208 -83.3733 223° Southwest 433 498 21,400 -1,100 Descending Atlanta Center
Tue 02:26:19 PM 34.4336 -83.4672 222° Southwest 433 498 20,200 -1,350 Descending Atlanta Center
Tue 02:27:19 PM 34.3403 -83.5708 223° Southwest 433 498 18,700 -1,600 Descending Atlanta Center
Tue 02:28:19 PM 34.2550 -83.6617 221° Southwest 419 482 17,000 -1,750 Descending Atlanta Center
Tue 02:29:19 PM 34.1739 -83.7500 222° Southwest 405 466 15,200 -1,500 Descending Atlanta Center
Tue 02:30:19 PM 34.1008 -83.8306 222° Southwest 384 442 14,000 -950 Descending Atlanta Center
Tue 02:31:19 PM 34.0364 -83.8983 221° Southwest 334 384 13,300 -1,000 Descending Atlanta Center
Tue 02:32:19 PM 33.9717 -83.9661 221° Southwest 312 359 12,000 -650 Descending Atlanta Center
Tue 02:33:19 PM 33.9092 -84.0339 222° Southwest 312 359 12,000  Level Atlanta Center
Tue 02:34:19 PM 33.8444 -84.1014 221° Southwest 312 359 12,000  Level Atlanta Center
Tue 02:35:19 PM 33.7775 -84.1464 209° Southwest 307 353 12,000 -94 Level Atlanta Center
Tue 02:36:26 PM 33.7333 -84.2500 243° Southwest 267 307 11,800 -567 Descending Atlanta TRACON
Tue 02:37:26 PM 33.7333 -84.3333 270° West 249 287 10,800 -991 Descending Atlanta TRACON
Tue 02:38:21 PM 33.7333 -84.4000 270° West 251 289 9,900 -1,579 Descending Atlanta TRACON
Tue 02:39:20 PM 33.7333 -84.4833 270° West 241 277 7,800 -2,158 Descending Atlanta TRACON
Tue 02:40:15 PM 33.7333 -84.5500 270° West 231 266 5,800 -1,983 Descending Atlanta TRACON
Tue 02:41:15 PM 33.7167 -84.6167 253° West 234 269 4,000 -900 Descending Atlanta TRACON
Tue 02:42:15 PM 33.6667 -84.6167 180° South 210 242 4,000 -368 Level Atlanta TRACON
Tue 02:43:09 PM 33.6500 -84.5667 112° Southeast 188 216 3,300 -895 Descending Atlanta TRACON
Tue 02:44:09 PM 33.6500 -84.5167 90° East 154 177 2,300 -900 Descending Atlanta TRACON
Tue 02:45:09 PM 33.6500 -84.4667 90° East 150 173 1,500 -800 Descending Atlanta TRACON
Tue 02:47:00 PM 33.6367 -84.4279 64° Northeast  Level Estimated

Login

Don't have an account? Register now (free) for customized features, flight alerts, and more!